createdAt,value
2022-10-04T00:02:03.525Z,7.60
2022-10-04T00:04:12.113Z,7.50
2022-10-04T00:06:21.761Z,7.40
2022-10-04T00:08:34.688Z,7.20
2022-10-04T00:10:42.372Z,7.10
2022-10-04T00:12:51.782Z,7.20
2022-10-04T00:15:01.603Z,7.30
2022-10-04T00:17:15.280Z,7.30
2022-10-04T00:19:45.460Z,7.30
2022-10-04T00:22:30.553Z,6.90
2022-10-04T00:24:38.527Z,6.70
2022-10-04T00:27:22.790Z,6.60
2022-10-04T00:29:35.970Z,6.70
2022-10-04T00:32:32.011Z,6.90
2022-10-04T00:34:52.175Z,6.80
2022-10-04T00:36:58.825Z,7.00
2022-10-04T00:39:19.924Z,6.80
2022-10-04T00:41:25.697Z,6.40
2022-10-04T00:43:36.428Z,6.40
2022-10-04T00:45:49.082Z,6.50
2022-10-04T00:48:31.424Z,6.40
2022-10-04T00:50:44.006Z,6.60
2022-10-04T00:52:55.302Z,6.60
2022-10-04T00:55:05.829Z,6.60
2022-10-04T00:57:20.284Z,6.70
2022-10-04T00:59:37.862Z,6.70
2022-10-04T01:01:43.280Z,6.70
2022-10-04T01:03:53.173Z,6.30
2022-10-04T01:06:02.406Z,6.20
2022-10-04T01:08:13.328Z,6.10
2022-10-04T01:10:25.461Z,6.00
2022-10-04T01:12:46.944Z,6.00
2022-10-04T01:14:58.792Z,5.60
2022-10-04T01:17:05.969Z,5.50
2022-10-04T01:19:34.368Z,5.60
2022-10-04T01:21:42.521Z,6.00
2022-10-04T01:23:52.511Z,6.10
2022-10-04T01:25:57.484Z,6.30
2022-10-04T01:28:03.693Z,6.30
2022-10-04T01:30:13.793Z,6.40
2022-10-04T01:32:18.838Z,6.40
2022-10-04T01:34:27.177Z,6.30
2022-10-04T01:36:32.834Z,6.30
2022-10-04T01:38:37.933Z,6.40
2022-10-04T01:40:54.298Z,6.30
2022-10-04T01:43:04.824Z,6.40
2022-10-04T01:45:19.839Z,6.30
2022-10-04T01:47:33.726Z,6.40
2022-10-04T01:49:43.025Z,6.40
2022-10-04T01:51:58.935Z,6.50
2022-10-04T01:54:09.561Z,6.60
2022-10-04T01:56:21.427Z,6.60
2022-10-04T01:58:31.567Z,6.60
2022-10-04T02:00:40.752Z,6.70
2022-10-04T02:02:54.724Z,6.60
2022-10-04T02:05:02.283Z,6.70
2022-10-04T02:07:16.346Z,6.70
2022-10-04T02:09:25.876Z,6.70
2022-10-04T02:11:34.484Z,6.60
2022-10-04T02:13:42.884Z,6.50
2022-10-04T02:15:49.740Z,6.50
2022-10-04T02:17:57.688Z,6.60
2022-10-04T02:20:04.700Z,6.60
2022-10-04T02:22:13.981Z,6.60
2022-10-04T02:24:19.757Z,6.60
2022-10-04T02:26:25.169Z,6.60
2022-10-04T02:28:36.270Z,6.60
2022-10-04T02:30:44.828Z,6.60
2022-10-04T02:33:00.598Z,6.70
2022-10-04T02:35:08.011Z,6.70
2022-10-04T02:37:13.637Z,6.70
2022-10-04T02:39:26.743Z,6.70
2022-10-04T02:41:35.852Z,6.60
2022-10-04T02:43:53.503Z,6.60
2022-10-04T02:46:08.010Z,6.50
2022-10-04T02:48:31.682Z,6.60
2022-10-04T02:50:43.736Z,6.60
2022-10-04T02:52:55.124Z,6.60
2022-10-04T02:55:07.360Z,6.60
2022-10-04T02:57:21.316Z,6.60
2022-10-04T02:59:33.523Z,6.60
2022-10-04T03:01:51.777Z,6.50
2022-10-04T03:03:59.813Z,6.60
2022-10-04T03:06:11.254Z,6.60
2022-10-04T03:08:17.141Z,6.60
2022-10-04T03:10:22.536Z,6.50
2022-10-04T03:12:28.544Z,6.50
2022-10-04T03:14:37.546Z,6.60
2022-10-04T03:16:47.640Z,6.60
2022-10-04T03:18:55.014Z,6.60
2022-10-04T03:21:01.395Z,6.60
2022-10-04T03:23:08.558Z,6.60
2022-10-04T03:25:19.964Z,6.60
2022-10-04T03:27:29.533Z,6.50
2022-10-04T03:29:42.625Z,6.40
2022-10-04T03:31:52.317Z,6.50
2022-10-04T03:33:59.013Z,6.50
2022-10-04T03:36:05.013Z,6.60
2022-10-04T03:38:14.124Z,6.60
2022-10-04T03:40:21.303Z,6.70
2022-10-04T03:42:30.408Z,6.60
2022-10-04T03:44:38.656Z,6.60
2022-10-04T03:46:45.421Z,6.60
2022-10-04T03:48:55.763Z,6.60
2022-10-04T03:51:02.115Z,6.60
2022-10-04T03:53:15.196Z,6.50
2022-10-04T03:55:22.156Z,6.40
2022-10-04T03:57:28.056Z,6.50
2022-10-04T03:59:33.394Z,6.50
2022-10-04T04:01:46.931Z,6.50
2022-10-04T04:04:03.775Z,6.60
2022-10-04T04:06:17.565Z,6.60
2022-10-04T04:08:35.299Z,6.60
2022-10-04T04:10:42.804Z,6.60
2022-10-04T04:12:55.847Z,6.60
2022-10-04T04:15:02.932Z,6.40
2022-10-04T04:17:39.620Z,6.50
2022-10-04T04:19:46.308Z,6.50
2022-10-04T04:21:52.641Z,6.50
2022-10-04T04:24:01.919Z,6.40
2022-10-04T04:26:23.558Z,6.50
2022-10-04T04:28:33.114Z,6.60
2022-10-04T04:30:41.569Z,6.60
2022-10-04T04:32:53.987Z,6.70
2022-10-04T04:35:07.374Z,6.70
2022-10-04T04:37:14.101Z,6.70
2022-10-04T04:39:40.961Z,6.60
2022-10-04T04:41:50.586Z,6.70
2022-10-04T04:43:56.259Z,6.80
2022-10-04T04:46:26.118Z,6.80
2022-10-04T04:48:29.299Z,6.70
2022-10-04T04:50:36.298Z,6.70
2022-10-04T04:52:43.036Z,6.70
2022-10-04T04:54:50.057Z,6.80
2022-10-04T04:56:57.956Z,6.80
2022-10-04T04:59:09.973Z,6.70
2022-10-04T05:01:23.937Z,6.70
2022-10-04T05:03:34.081Z,6.80
2022-10-04T05:05:40.172Z,6.80
2022-10-04T05:07:45.704Z,6.80
2022-10-04T05:09:50.691Z,6.70
2022-10-04T05:12:00.138Z,6.70
2022-10-04T05:14:11.080Z,6.60
2022-10-04T05:16:21.579Z,6.70
2022-10-04T05:18:36.388Z,6.80
2022-10-04T05:20:41.447Z,6.80
2022-10-04T05:22:52.033Z,6.80
2022-10-04T05:25:01.504Z,6.80
2022-10-04T05:27:10.719Z,6.80
2022-10-04T05:29:21.229Z,6.80
2022-10-04T05:31:42.221Z,6.80
2022-10-04T05:33:55.140Z,6.80
2022-10-04T05:36:54.508Z,6.80
2022-10-04T05:39:08.301Z,6.70
2022-10-04T05:41:32.698Z,6.60
2022-10-04T05:43:47.999Z,6.60
2022-10-04T05:46:28.221Z,6.70
2022-10-04T05:48:33.705Z,6.70
2022-10-04T05:50:45.404Z,6.80
2022-10-04T05:52:54.292Z,6.80
2022-10-04T05:55:30.507Z,6.80
2022-10-04T05:57:47.000Z,6.90
2022-10-04T06:00:19.840Z,6.90
2022-10-04T06:02:40.754Z,6.90
2022-10-04T06:05:04.334Z,7.00
2022-10-04T06:07:26.432Z,7.00
2022-10-04T06:10:18.456Z,7.00
2022-10-04T06:12:44.540Z,7.00
2022-10-04T06:15:28.702Z,7.10
2022-10-04T06:17:58.309Z,7.10
2022-10-04T06:20:49.028Z,7.10
2022-10-04T06:23:04.105Z,7.10
2022-10-04T06:25:15.995Z,7.10
2022-10-04T06:27:29.892Z,7.10
2022-10-04T06:29:42.426Z,7.10
2022-10-04T06:32:43.837Z,7.10
2022-10-04T06:35:20.042Z,7.10
2022-10-04T06:38:08.207Z,7.10
2022-10-04T06:40:52.738Z,7.10
2022-10-04T06:43:29.661Z,7.10
2022-10-04T06:45:57.322Z,7.10
2022-10-04T06:48:18.590Z,7.20
2022-10-04T06:50:34.006Z,7.20
2022-10-04T06:53:03.427Z,7.30
2022-10-04T06:55:41.623Z,7.30
2022-10-04T06:58:20.570Z,7.40
2022-10-04T07:00:27.498Z,7.40
2022-10-04T07:02:39.079Z,7.50
2022-10-04T07:05:09.412Z,7.50
2022-10-04T07:07:35.548Z,7.60
2022-10-04T07:09:45.376Z,7.60
2022-10-04T07:11:58.242Z,7.60
2022-10-04T07:14:13.353Z,7.60
2022-10-04T07:16:35.738Z,7.60
2022-10-04T07:18:53.579Z,7.70
2022-10-04T07:21:05.491Z,7.60
2022-10-04T07:23:18.203Z,7.70
2022-10-04T07:25:32.217Z,7.70
2022-10-04T07:28:16.577Z,7.70
2022-10-04T07:30:20.895Z,7.80
2022-10-04T07:32:31.086Z,7.80
2022-10-04T07:34:41.786Z,7.90
2022-10-04T07:36:51.585Z,8.00
2022-10-04T07:39:02.034Z,8.00
2022-10-04T07:41:17.091Z,8.10
2022-10-04T07:43:32.421Z,8.10
2022-10-04T07:45:41.550Z,8.20
2022-10-04T07:47:47.212Z,8.20
2022-10-04T07:49:54.174Z,8.30
2022-10-04T07:52:20.682Z,8.30
2022-10-04T07:54:38.613Z,8.30
2022-10-04T07:56:50.970Z,8.40
2022-10-04T07:59:20.418Z,8.40
2022-10-04T08:01:36.763Z,8.40
2022-10-04T08:04:02.855Z,8.50
2022-10-04T08:06:17.805Z,8.50
2022-10-04T08:08:42.144Z,8.50
2022-10-04T08:10:57.711Z,8.50
2022-10-04T08:13:22.698Z,8.60
2022-10-04T08:15:41.016Z,8.60
2022-10-04T08:17:59.106Z,8.70
2022-10-04T08:20:23.332Z,8.70
2022-10-04T08:22:53.136Z,8.80
2022-10-04T08:25:09.267Z,8.80
2022-10-04T08:27:39.793Z,8.90
2022-10-04T08:30:05.036Z,8.90
2022-10-04T08:32:34.565Z,9.00
2022-10-04T08:34:59.214Z,9.10
2022-10-04T08:37:16.865Z,9.20
2022-10-04T08:39:41.762Z,9.20
2022-10-04T08:42:32.218Z,9.20
2022-10-04T08:45:38.564Z,9.30
2022-10-04T08:48:29.170Z,9.40
2022-10-04T08:51:21.886Z,9.40
2022-10-04T08:54:04.364Z,9.50
2022-10-04T08:56:19.546Z,9.60
2022-10-04T08:59:07.279Z,9.80
2022-10-04T09:01:53.366Z,9.80
2022-10-04T09:04:35.695Z,10.10
2022-10-04T09:06:53.776Z,10.20
2022-10-04T09:10:09.138Z,10.30
2022-10-04T09:12:47.236Z,10.30
2022-10-04T09:15:22.880Z,10.30
2022-10-04T09:17:48.052Z,10.30
2022-10-04T09:20:26.286Z,10.50
2022-10-04T09:22:57.586Z,10.50
2022-10-04T09:25:26.019Z,10.60
2022-10-04T09:27:58.425Z,10.80
2022-10-04T09:30:18.942Z,10.80
2022-10-04T09:33:24.395Z,10.90
2022-10-04T09:36:04.640Z,10.90
2022-10-04T09:39:05.823Z,11.10
2022-10-04T09:41:44.569Z,11.20
2022-10-04T09:44:31.111Z,11.50
2022-10-04T09:47:12.710Z,11.70
2022-10-04T09:49:47.010Z,11.90
2022-10-04T09:52:16.568Z,11.90
2022-10-04T09:54:56.887Z,12.00
2022-10-04T09:57:28.419Z,11.90
2022-10-04T10:00:01.637Z,12.20
2022-10-04T10:02:50.372Z,12.50
2022-10-04T10:05:21.895Z,13.10
2022-10-04T10:07:43.800Z,12.80
2022-10-04T10:10:14.135Z,12.90
2022-10-04T10:13:10.623Z,12.80
2022-10-04T10:15:29.721Z,12.90
2022-10-04T10:17:44.020Z,12.70
2022-10-04T10:20:37.141Z,12.80
2022-10-04T10:23:33.662Z,12.90
2022-10-04T10:25:59.313Z,13.20
2022-10-04T10:28:49.077Z,12.90
2022-10-04T10:31:20.076Z,12.80
2022-10-04T10:34:21.889Z,13.10
2022-10-04T10:37:12.755Z,13.50
2022-10-04T10:39:59.450Z,13.30
2022-10-04T10:42:46.069Z,13.70
2022-10-04T10:45:17.437Z,13.90
2022-10-04T10:47:42.885Z,13.80
2022-10-04T10:50:27.537Z,13.90
2022-10-04T10:53:31.779Z,13.90
2022-10-04T10:56:31.361Z,14.00
2022-10-04T10:59:23.734Z,14.20
2022-10-04T11:02:01.443Z,14.10
2022-10-04T11:04:45.199Z,14.40
2022-10-04T11:07:46.818Z,14.10
2022-10-04T11:10:50.008Z,14.30
2022-10-04T11:13:43.065Z,14.50
2022-10-04T11:16:27.125Z,14.30
2022-10-04T11:19:15.974Z,14.50
2022-10-04T11:22:07.481Z,14.60
2022-10-04T11:24:55.614Z,14.80
2022-10-04T11:27:28.576Z,14.40
2022-10-04T11:30:05.902Z,14.30
2022-10-04T11:33:14.528Z,14.80
2022-10-04T11:35:47.565Z,14.70
2022-10-04T11:38:10.047Z,14.60
2022-10-04T11:40:34.440Z,14.70
2022-10-04T11:43:01.813Z,14.90
2022-10-04T11:45:33.740Z,15.20
2022-10-04T11:47:51.733Z,15.30
2022-10-04T11:50:20.900Z,15.40
2022-10-04T11:53:04.009Z,15.50
2022-10-04T11:55:45.610Z,15.50
2022-10-04T11:57:55.211Z,15.40
2022-10-04T12:00:16.796Z,15.50
2022-10-04T12:02:56.304Z,15.60
2022-10-04T12:06:06.986Z,15.80
2022-10-04T12:08:31.951Z,15.90
2022-10-04T12:10:41.521Z,16.00
2022-10-04T12:13:24.194Z,16.10
2022-10-04T12:15:49.824Z,16.10
2022-10-04T12:18:39.608Z,16.10
2022-10-04T12:21:05.485Z,16.10
2022-10-04T12:23:38.677Z,16.20
2022-10-04T12:26:14.605Z,16.30
2022-10-04T12:29:10.492Z,16.50
2022-10-04T12:31:31.437Z,16.90
2022-10-04T12:33:46.136Z,17.50
2022-10-04T12:36:03.486Z,17.40
2022-10-04T12:38:34.377Z,17.40
2022-10-04T12:40:49.865Z,17.80
2022-10-04T12:43:04.805Z,17.70
2022-10-04T12:45:48.469Z,17.50
2022-10-04T12:48:19.243Z,17.60
2022-10-04T12:50:38.609Z,17.80
2022-10-04T12:52:53.982Z,17.90
2022-10-04T12:55:06.853Z,18.10
2022-10-04T12:57:50.651Z,18.20
2022-10-04T13:00:04.665Z,18.20
2022-10-04T13:02:28.095Z,18.30
2022-10-04T13:04:42.352Z,18.50
2022-10-04T13:07:24.638Z,18.70
2022-10-04T13:10:05.441Z,19.10
2022-10-04T13:12:30.213Z,18.60
2022-10-04T13:15:19.338Z,18.50
2022-10-04T13:17:42.925Z,18.90
2022-10-04T13:20:03.525Z,19.10
2022-10-04T13:22:55.941Z,19.30
2022-10-04T13:25:27.646Z,19.30
2022-10-04T13:27:43.760Z,19.30
2022-10-04T13:30:02.663Z,19.40
2022-10-04T13:32:17.245Z,19.30
2022-10-04T13:34:35.902Z,19.50
2022-10-04T13:37:20.668Z,19.80
2022-10-04T13:39:56.301Z,20.00
2022-10-04T13:42:25.120Z,20.20
2022-10-04T13:44:53.037Z,20.30
2022-10-04T13:47:23.654Z,20.10
2022-10-04T13:49:45.906Z,19.70
2022-10-04T13:52:25.963Z,19.50
2022-10-04T13:54:55.161Z,19.90
2022-10-04T13:57:18.720Z,20.40
2022-10-04T13:59:37.133Z,20.60
2022-10-04T14:02:30.217Z,20.70
2022-10-04T14:05:29.772Z,20.80
2022-10-04T14:08:12.147Z,20.40
2022-10-04T14:11:04.517Z,20.40
2022-10-04T14:14:05.304Z,20.50
2022-10-04T14:16:57.460Z,20.70
2022-10-04T14:19:46.190Z,20.60
2022-10-04T14:22:38.702Z,20.50
2022-10-04T14:25:21.183Z,20.70
2022-10-04T14:28:00.181Z,20.90
2022-10-04T14:30:26.151Z,20.70
2022-10-04T14:33:23.547Z,20.70
2022-10-04T14:38:09.218Z,20.70
2022-10-04T14:40:47.474Z,20.70
2022-10-04T14:43:23.459Z,20.80
2022-10-04T14:45:40.756Z,20.60
2022-10-04T14:48:26.914Z,20.50
2022-10-04T14:50:41.385Z,20.50
2022-10-04T14:53:02.485Z,20.60
2022-10-04T14:55:41.244Z,20.30
2022-10-04T14:58:05.278Z,20.20
2022-10-04T15:00:33.157Z,20.30
2022-10-04T15:03:13.746Z,19.90
2022-10-04T15:06:24.413Z,19.90
2022-10-04T15:09:00.735Z,20.10
2022-10-04T15:11:11.827Z,20.10
2022-10-04T15:13:28.503Z,20.20
2022-10-04T15:16:13.120Z,20.20
2022-10-04T15:18:48.118Z,20.20
2022-10-04T15:21:00.485Z,20.20
2022-10-04T15:23:20.838Z,20.10
2022-10-04T15:25:44.066Z,20.00
2022-10-04T15:27:59.739Z,20.00
2022-10-04T15:30:15.931Z,19.90
2022-10-04T15:32:35.826Z,19.90
2022-10-04T15:34:50.998Z,19.90
2022-10-04T15:37:15.553Z,19.80
2022-10-04T15:40:03.876Z,19.70
2022-10-04T15:42:17.597Z,19.60
2022-10-04T15:45:05.163Z,19.60
2022-10-04T15:47:23.510Z,19.50
2022-10-04T15:49:53.873Z,19.40
2022-10-04T15:52:21.554Z,19.40
2022-10-04T15:55:06.344Z,19.40
2022-10-04T15:57:31.669Z,19.30
2022-10-04T15:59:53.871Z,19.30
2022-10-04T16:02:46.801Z,19.10
2022-10-04T16:05:09.388Z,19.10
2022-10-04T16:08:16.846Z,18.90
2022-10-04T16:10:31.529Z,18.70
2022-10-04T16:13:07.073Z,18.70
2022-10-04T16:15:23.115Z,18.60
2022-10-04T16:18:07.848Z,18.70
2022-10-04T16:20:58.728Z,18.60
2022-10-04T16:23:34.519Z,18.40
2022-10-04T16:25:41.815Z,18.40
2022-10-04T16:28:05.837Z,18.20
2022-10-04T16:30:30.864Z,18.00
2022-10-04T16:32:45.853Z,17.70
2022-10-04T16:34:57.579Z,17.50
2022-10-04T16:37:15.546Z,17.40
2022-10-04T16:39:51.259Z,17.20
2022-10-04T16:42:03.024Z,17.10
2022-10-04T16:44:31.793Z,16.80
2022-10-04T16:46:45.195Z,16.70
2022-10-04T16:48:56.605Z,16.50
2022-10-04T16:51:40.576Z,16.40
2022-10-04T16:53:59.676Z,16.30
2022-10-04T16:56:17.393Z,16.20
2022-10-04T16:58:55.395Z,16.00
2022-10-04T17:01:55.096Z,15.90
2022-10-04T17:04:20.716Z,15.60
2022-10-04T17:06:37.871Z,15.30
2022-10-04T17:09:09.481Z,15.30
2022-10-04T17:11:42.519Z,15.30
2022-10-04T17:13:57.877Z,15.30
2022-10-04T17:16:09.384Z,15.20
2022-10-04T17:18:28.814Z,15.10
2022-10-04T17:20:55.613Z,15.10
2022-10-04T17:23:24.273Z,14.90
2022-10-04T17:25:42.965Z,14.90
2022-10-04T17:27:53.356Z,14.80
2022-10-04T17:30:17.051Z,14.80
2022-10-04T17:32:30.079Z,14.70
2022-10-04T17:34:55.076Z,14.70
2022-10-04T17:37:20.152Z,14.70
2022-10-04T17:39:44.555Z,14.60
2022-10-04T17:42:16.037Z,14.40
2022-10-04T17:44:40.044Z,14.30
2022-10-04T17:46:50.952Z,14.10
2022-10-04T17:49:14.796Z,13.90
2022-10-04T17:51:55.306Z,14.00
2022-10-04T17:54:26.824Z,14.00
2022-10-04T17:56:37.748Z,13.70
2022-10-04T17:58:48.889Z,13.10
2022-10-04T18:01:06.869Z,13.00
2022-10-04T18:03:15.992Z,13.20
2022-10-04T18:05:26.577Z,13.40
2022-10-04T18:07:39.946Z,13.50
2022-10-04T18:09:53.407Z,13.50
2022-10-04T18:12:02.736Z,13.30
2022-10-04T18:14:13.183Z,13.00
2022-10-04T18:16:26.639Z,12.90
2022-10-04T18:18:40.582Z,13.00
2022-10-04T18:21:07.685Z,13.10
2022-10-04T18:23:20.942Z,12.80
2022-10-04T18:25:31.026Z,12.80
2022-10-04T18:27:49.610Z,12.90
2022-10-04T18:30:14.587Z,12.80
2022-10-04T18:32:34.763Z,12.80
2022-10-04T18:34:40.397Z,12.70
2022-10-04T18:37:00.256Z,12.80
2022-10-04T18:39:27.391Z,12.80
2022-10-04T18:41:47.591Z,12.80
2022-10-04T18:44:15.720Z,12.80
2022-10-04T18:46:25.175Z,12.80
2022-10-04T18:48:43.276Z,12.70
2022-10-04T18:50:49.004Z,12.70
2022-10-04T18:53:32.867Z,12.60
2022-10-04T18:55:50.756Z,12.60
2022-10-04T18:58:21.449Z,12.50
2022-10-04T19:00:40.959Z,12.50
2022-10-04T19:03:00.815Z,12.40
2022-10-04T19:05:17.865Z,12.40
2022-10-04T19:07:34.376Z,12.30
2022-10-04T19:10:03.815Z,12.30
2022-10-04T19:12:15.878Z,11.50
2022-10-04T19:14:35.061Z,11.70
2022-10-04T19:16:52.202Z,11.40
2022-10-04T19:19:09.425Z,11.60
2022-10-04T19:21:27.035Z,11.70
2022-10-04T19:23:43.865Z,11.70
2022-10-04T19:26:26.251Z,11.60
2022-10-04T19:28:23.391Z,11.10
2022-10-04T19:30:54.445Z,11.30
2022-10-04T19:33:18.207Z,11.30
2022-10-04T19:35:40.963Z,11.30
2022-10-04T19:37:59.455Z,10.90
2022-10-04T19:40:12.179Z,10.80
2022-10-04T19:42:21.262Z,11.00
2022-10-04T19:44:41.119Z,11.10
2022-10-04T19:46:58.419Z,11.20
2022-10-04T19:49:04.214Z,11.30
2022-10-04T19:51:15.897Z,11.40
2022-10-04T19:53:24.008Z,11.30
2022-10-04T19:55:43.972Z,11.20
2022-10-04T19:57:54.865Z,11.20
2022-10-04T20:00:00.845Z,11.20
2022-10-04T20:02:12.347Z,11.30
2022-10-04T20:04:34.327Z,11.20
2022-10-04T20:06:40.812Z,11.20
2022-10-04T20:09:01.874Z,11.20
2022-10-04T20:11:20.448Z,11.10
2022-10-04T20:13:26.942Z,11.10
2022-10-04T20:15:54.743Z,11.10
2022-10-04T20:18:03.362Z,11.10
2022-10-04T20:20:08.541Z,10.80
2022-10-04T20:22:56.915Z,10.70
2022-10-04T20:25:02.159Z,10.60
2022-10-04T20:27:09.635Z,10.30
2022-10-04T20:29:14.733Z,10.20
2022-10-04T20:31:59.581Z,10.20
2022-10-04T20:34:35.557Z,10.30
2022-10-04T20:36:54.627Z,10.40
2022-10-04T20:39:06.372Z,10.10
2022-10-04T20:42:23.175Z,10.00
2022-10-04T20:44:54.244Z,9.90
2022-10-04T20:46:59.361Z,9.90
2022-10-04T20:49:05.948Z,10.20
2022-10-04T20:51:12.382Z,10.30
2022-10-04T20:53:22.786Z,10.30
2022-10-04T20:55:31.545Z,10.40
2022-10-04T20:57:42.729Z,10.40
2022-10-04T20:59:48.400Z,10.30
2022-10-04T21:02:05.665Z,10.40
2022-10-04T21:04:17.649Z,10.30
2022-10-04T21:06:22.684Z,9.50
2022-10-04T21:08:29.707Z,9.30
2022-10-04T21:10:34.776Z,9.10
2022-10-04T21:12:43.502Z,9.20
2022-10-04T21:15:06.362Z,8.70
2022-10-04T21:17:42.901Z,8.90
2022-10-04T21:19:48.691Z,8.60
2022-10-04T21:21:54.270Z,8.60
2022-10-04T21:23:59.295Z,8.40
2022-10-04T21:26:23.992Z,8.50
2022-10-04T21:28:37.738Z,8.60
2022-10-04T21:30:43.182Z,9.00
2022-10-04T21:32:49.203Z,9.10
2022-10-04T21:34:55.122Z,9.30
2022-10-04T21:37:01.163Z,9.50
2022-10-04T21:39:06.445Z,9.50
2022-10-04T21:41:12.122Z,9.60
2022-10-04T21:43:17.211Z,9.60
2022-10-04T21:45:24.819Z,9.60
2022-10-04T21:47:30.013Z,9.50
2022-10-04T21:49:35.047Z,9.50
2022-10-04T21:51:41.290Z,9.20
2022-10-04T21:53:46.491Z,9.30
2022-10-04T21:55:51.638Z,9.30
2022-10-04T21:57:57.076Z,9.30
2022-10-04T22:00:02.863Z,9.40
2022-10-04T22:02:19.869Z,9.50
2022-10-04T22:04:25.429Z,9.40
2022-10-04T22:06:31.604Z,9.40
2022-10-04T22:08:36.680Z,9.50
2022-10-04T22:10:43.486Z,9.50
2022-10-04T22:12:50.262Z,9.40
2022-10-04T22:14:55.692Z,9.30
2022-10-04T22:17:00.756Z,9.30
2022-10-04T22:19:08.517Z,9.30
2022-10-04T22:21:14.227Z,9.30
2022-10-04T22:23:23.352Z,8.90
2022-10-04T22:25:30.488Z,8.50
2022-10-04T22:27:36.260Z,8.60
2022-10-04T22:29:41.599Z,8.70
2022-10-04T22:31:50.110Z,8.90
2022-10-04T22:33:56.708Z,9.10
2022-10-04T22:36:17.760Z,9.10
2022-10-04T22:38:22.964Z,9.20
2022-10-04T22:40:28.452Z,9.20
2022-10-04T22:42:35.017Z,9.20
2022-10-04T22:44:41.917Z,9.30
2022-10-04T22:46:49.805Z,9.20
2022-10-04T22:48:54.677Z,9.20
2022-10-04T22:50:59.830Z,9.20
2022-10-04T22:53:15.032Z,9.20
2022-10-04T22:55:22.563Z,9.20
2022-10-04T22:57:27.955Z,9.20
2022-10-04T22:59:40.929Z,9.10
2022-10-04T23:01:46.622Z,9.10
2022-10-04T23:03:53.066Z,8.80
2022-10-04T23:05:58.569Z,8.80
2022-10-04T23:08:03.941Z,8.20
2022-10-04T23:10:13.696Z,7.90
2022-10-04T23:12:19.048Z,7.90
2022-10-04T23:14:24.685Z,8.10
2022-10-04T23:16:29.755Z,8.40
2022-10-04T23:18:36.721Z,8.50
2022-10-04T23:20:41.795Z,7.90
2022-10-04T23:22:49.090Z,7.70
2022-10-04T23:24:55.160Z,8.00
2022-10-04T23:27:03.862Z,8.00
2022-10-04T23:29:17.047Z,8.40
2022-10-04T23:31:27.147Z,8.50
2022-10-04T23:33:32.273Z,8.60
2022-10-04T23:35:37.523Z,8.70
2022-10-04T23:37:43.310Z,8.70
2022-10-04T23:39:49.329Z,8.60
2022-10-04T23:41:56.216Z,8.60
2022-10-04T23:44:04.562Z,8.60
2022-10-04T23:46:18.260Z,8.70
2022-10-04T23:48:28.386Z,8.70
2022-10-04T23:50:37.464Z,8.70
2022-10-04T23:52:43.475Z,8.70
2022-10-04T23:54:49.450Z,8.70
2022-10-04T23:56:55.161Z,8.70
2022-10-04T23:59:06.301Z,8.80
